Time;durP1;ratioP1;P1;durP2;ratioP2;P2;SDS_P1;SDS_P2;PMS_P1;PMS_P2;Temp;Humidity;BMP_temperature;BMP_pressure;BME280_temperature;BME280_humidity;BME280_pressure;Samples;Min_cycle;Max_cycle;Signal;HPM_P1;HPM_P2
2023/07/01 00:02:10;;;;;;;10.75;6.55;;;22.10;99.90;;;;;;5035645;28;20064;-49
2023/07/01 00:04:35;;;;;;;11.18;6.18;;;22.00;99.90;;;;;;5054877;28;20035;-50
2023/07/01 00:07:01;;;;;;;10.30;6.55;;;22.00;99.90;;;;;;5054024;28;20096;-50
2023/07/01 00:09:27;;;;;;;12.30;6.55;;;21.60;99.90;;;;;;5052307;28;20174;-48
2023/07/01 00:11:53;;;;;;;9.13;6.60;;;21.40;99.90;;;;;;5054098;28;20029;-49
2023/07/01 00:14:19;;;;;;;9.73;6.95;;;21.40;99.90;;;;;;5054285;28;20025;-49
2023/07/01 00:16:44;;;;;;;8.60;5.97;;;21.30;99.90;;;;;;5035389;28;20499;-50
2023/07/01 00:19:10;;;;;;;9.85;6.30;;;21.40;99.90;;;;;;5035665;28;20039;-49
2023/07/01 00:21:36;;;;;;;9.25;5.38;;;21.50;99.90;;;;;;5053807;28;20071;-49
2023/07/01 00:24:02;;;;;;;8.52;5.75;;;21.60;99.90;;;;;;5054038;28;20120;-50
2023/07/01 00:26:27;;;;;;;9.15;5.55;;;21.60;99.90;;;;;;5053926;28;20036;-49
2023/07/01 00:28:53;;;;;;;7.45;4.68;;;21.70;99.90;;;;;;5052922;28;20029;-49
2023/07/01 00:31:19;;;;;;;8.07;4.82;;;21.70;99.90;;;;;;5053601;28;20408;-50
2023/07/01 00:33:44;;;;;;;6.85;4.97;;;21.70;99.90;;;;;;5053673;28;20444;-51
2023/07/01 00:36:10;;;;;;;9.00;4.53;;;21.70;99.90;;;;;;5053847;28;20028;-50
2023/07/01 00:38:36;;;;;;;6.55;4.75;;;21.70;99.90;;;;;;5051769;28;20392;-49
2023/07/01 00:41:02;;;;;;;6.65;4.65;;;21.70;99.90;;;;;;5053463;28;20517;-48
2023/07/01 00:43:28;;;;;;;6.22;4.13;;;21.70;99.90;;;;;;5035154;28;20037;-50
2023/07/01 00:45:53;;;;;;;6.25;4.55;;;21.80;99.90;;;;;;5051690;28;20065;-50
2023/07/01 00:48:27;;;;;;;5.78;4.63;;;21.70;99.90;;;;;;5053920;28;20041;-49
2023/07/01 00:50:54;;;;;;;7.13;4.60;;;21.80;99.90;;;;;;5053321;28;20037;-50
2023/07/01 00:53:21;;;;;;;7.15;4.50;;;21.70;99.90;;;;;;5053610;28;20021;-50
2023/07/01 00:55:47;;;;;;;6.60;4.38;;;21.70;99.90;;;;;;5053300;28;20025;-49
2023/07/01 00:58:14;;;;;;;8.18;4.47;;;21.50;99.90;;;;;;5053325;28;20025;-48
2023/07/01 01:00:40;;;;;;;6.25;4.88;;;21.50;99.90;;;;;;5053419;28;20029;-49
2023/07/01 01:03:06;;;;;;;7.72;4.85;;;21.40;99.90;;;;;;5053098;28;20025;-48
2023/07/01 01:05:39;;;;;;;11.30;4.80;;;21.50;99.90;;;;;;5053207;28;20029;-49
2023/07/01 01:08:08;;;;;;;8.38;4.90;;;21.50;99.90;;;;;;5053005;28;20366;-48
2023/07/01 01:10:37;;;;;;;7.15;4.65;;;21.50;99.90;;;;;;5053300;28;20021;-49
2023/07/01 01:13:04;;;;;;;6.97;4.85;;;21.50;99.90;;;;;;5052937;28;20408;-51
2023/07/01 01:15:30;;;;;;;6.30;4.82;;;21.50;99.90;;;;;;5053237;28;20028;-50
2023/07/01 01:18:01;;;;;;;6.25;4.30;;;21.40;99.90;;;;;;5052757;28;20053;-50
2023/07/01 01:20:30;;;;;;;4.88;3.88;;;21.40;99.90;;;;;;5053432;28;20546;-48
2023/07/01 01:23:02;;;;;;;9.48;4.30;;;21.30;99.90;;;;;;5053001;28;20021;-49
2023/07/01 01:25:39;;;;;;;5.03;4.13;;;21.30;99.90;;;;;;5052780;28;20388;-50
2023/07/01 01:28:06;;;;;;;9.43;5.10;;;21.30;99.90;;;;;;5052653;28;20041;-50
2023/07/01 01:30:32;;;;;;;7.15;4.35;;;21.30;99.90;;;;;;5053213;28;20358;-49
2023/07/01 01:32:59;;;;;;;6.93;4.35;;;21.40;99.90;;;;;;5052706;28;20036;-49
2023/07/01 01:35:26;;;;;;;4.80;3.53;;;21.30;99.90;;;;;;5034336;28;20041;-49
2023/07/01 01:38:05;;;;;;;6.88;4.25;;;21.30;99.90;;;;;;5052802;28;20530;-48
2023/07/01 01:40:42;;;;;;;5.82;4.32;;;21.30;99.90;;;;;;5054875;28;20082;-49
2023/07/01 01:43:16;;;;;;;7.68;4.63;;;21.40;99.90;;;;;;5057411;28;20029;-50
2023/07/01 01:45:43;;;;;;;13.23;5.05;;;21.40;99.90;;;;;;5038451;28;20033;-49
2023/07/01 01:48:11;;;;;;;7.03;4.22;;;21.40;99.90;;;;;;5056671;28;20036;-49
2023/07/01 01:50:39;;;;;;;6.60;4.28;;;21.40;99.90;;;;;;5056916;28;20108;-50
2023/07/01 01:53:05;;;;;;;5.07;3.75;;;21.40;99.90;;;;;;5056706;28;20044;-49
2023/07/01 01:55:32;;;;;;;8.55;4.38;;;21.40;99.90;;;;;;5057111;28;20075;-49
2023/07/01 01:58:02;;;;;;;5.07;4.03;;;21.40;99.90;;;;;;5056487;28;20499;-50
2023/07/01 02:00:28;;;;;;;5.82;4.03;;;21.30;99.90;;;;;;5038052;28;20032;-48
2023/07/01 02:02:54;;;;;;;4.68;3.70;;;21.30;99.90;;;;;;5054719;28;20039;-50
2023/07/01 02:05:19;;;;;;;6.30;4.60;;;21.30;99.90;;;;;;5056443;28;20047;-48
2023/07/01 02:07:45;;;;;;;6.00;4.18;;;21.30;99.90;;;;;;5056298;28;20033;-49
2023/07/01 02:10:12;;;;;;;7.30;4.80;;;21.40;99.90;;;;;;5056327;28;20021;-50
2023/07/01 02:12:37;;;;;;;6.75;4.50;;;21.30;99.90;;;;;;5056535;28;20426;-49
2023/07/01 02:15:03;;;;;;;6.63;4.05;;;21.30;99.90;;;;;;5054532;28;20033;-50
2023/07/01 02:17:29;;;;;;;7.65;5.30;;;21.40;99.90;;;;;;5054299;28;20142;-50
2023/07/01 02:19:55;;;;;;;7.60;4.57;;;21.30;99.90;;;;;;5056174;28;20043;-48
2023/07/01 02:22:21;;;;;;;8.23;5.03;;;21.00;99.90;;;;;;5055830;28;20028;-48
2023/07/01 02:24:46;;;;;;;9.50;4.78;;;20.70;99.90;;;;;;5056233;28;20068;-48
2023/07/01 02:27:12;;;;;;;6.93;4.97;;;20.50;99.90;;;;;;5055911;28;20401;-50
2023/07/01 02:29:38;;;;;;;7.88;4.35;;;20.50;99.90;;;;;;5037644;28;20033;-48
2023/07/01 02:32:04;;;;;;;6.78;4.43;;;20.70;99.90;;;;;;5056175;28;20044;-49
2023/07/01 02:34:30;;;;;;;6.43;4.18;;;20.60;99.90;;;;;;5037343;28;20068;-50
2023/07/01 02:36:56;;;;;;;6.90;4.65;;;20.80;99.90;;;;;;5056402;28;20104;-48
2023/07/01 02:39:22;;;;;;;7.80;4.55;;;20.90;99.90;;;;;;5055893;28;20167;-49
2023/07/01 02:41:48;;;;;;;9.55;4.57;;;21.10;99.90;;;;;;5055993;28;20029;-48
2023/07/01 02:44:13;;;;;;;6.80;4.95;;;21.20;99.90;;;;;;5037167;28;20476;-49
2023/07/01 02:46:39;;;;;;;8.13;5.07;;;21.00;99.90;;;;;;5053933;28;20124;-49
2023/07/01 02:49:05;;;;;;;10.15;5.60;;;20.90;99.90;;;;;;5055629;28;20098;-50
2023/07/01 02:51:31;;;;;;;10.88;5.10;;;21.00;99.90;;;;;;5052970;28;20048;-49
2023/07/01 02:53:56;;;;;;;9.32;5.15;;;21.10;99.90;;;;;;5055470;28;20032;-49
2023/07/01 02:56:22;;;;;;;6.22;4.72;;;21.10;99.90;;;;;;5055509;28;20031;-48
2023/07/01 02:58:48;;;;;;;6.95;4.90;;;21.10;99.90;;;;;;5055940;28;20064;-48
2023/07/01 03:01:14;;;;;;;9.98;5.47;;;21.10;99.90;;;;;;5053703;28;20045;-49
2023/07/01 03:03:40;;;;;;;8.70;5.10;;;21.00;99.90;;;;;;5055417;28;20021;-49
2023/07/01 03:06:06;;;;;;;8.77;4.97;;;21.00;99.90;;;;;;5036979;28;20511;-48
2023/07/01 03:08:32;;;;;;;7.40;5.32;;;21.00;99.90;;;;;;5055584;28;20025;-49
2023/07/01 03:10:58;;;;;;;10.88;5.10;;;21.20;99.90;;;;;;5055824;28;20143;-49
2023/07/01 03:13:23;;;;;;;10.93;5.53;;;21.10;99.90;;;;;;5036798;28;20552;-50
2023/07/01 03:15:50;;;;;;;7.90;4.70;;;21.20;99.90;;;;;;5036732;28;20036;-48
2023/07/01 03:18:15;;;;;;;9.70;5.53;;;21.30;99.90;;;;;;5055010;28;20110;-49
2023/07/01 03:20:42;;;;;;;9.00;5.05;;;;;;;;;;5055594;28;20415;-49
2023/07/01 03:23:07;;;;;;;9.93;5.55;;;21.40;99.90;;;;;;5055085;28;20033;-49
2023/07/01 03:25:35;;;;;;;8.98;6.25;;;21.40;99.90;;;;;;5053010;28;20055;-50
2023/07/01 03:28:01;;;;;;;8.30;4.57;;;21.30;99.90;;;;;;5053211;28;20442;-50
2023/07/01 03:30:30;;;;;;;6.63;4.90;;;21.40;99.90;;;;;;5055110;28;20151;-50
2023/07/01 03:32:57;;;;;;;8.05;5.75;;;21.50;99.90;;;;;;5055331;28;20432;-49
2023/07/01 03:35:23;;;;;;;6.95;5.15;;;21.50;99.90;;;;;;5054811;28;20392;-50
2023/07/01 03:37:48;;;;;;;9.30;4.82;;;21.50;99.90;;;;;;5055041;28;20064;-49
2023/07/01 03:40:14;;;;;;;7.38;4.43;;;21.50;99.90;;;;;;5054685;28;20057;-50
2023/07/01 03:42:41;;;;;;;9.93;4.82;;;21.50;99.90;;;;;;5054622;28;20155;-50
2023/07/01 03:45:12;;;;;;;7.38;4.93;;;21.50;99.90;;;;;;5036256;28;20045;-49
2023/07/01 03:47:43;;;;;;;11.57;6.57;;;21.50;99.90;;;;;;5054499;28;20061;-48
2023/07/01 03:50:10;;;;;;;7.95;5.20;;;21.60;99.90;;;;;;5054659;28;20083;-49
2023/07/01 03:52:36;;;;;;;11.25;5.85;;;21.50;99.90;;;;;;5284712;23;20486;-55
2023/07/01 03:55:07;;;;;;;8.70;5.97;;;21.50;99.90;;;;;;5073692;28;20103;-53
2023/07/01 03:57:33;;;;;;;11.10;5.95;;;21.50;99.90;;;;;;4975484;28;20095;-56
2023/07/01 04:00:00;;;;;;;15.23;6.10;;;21.60;99.90;;;;;;5074294;28;20021;-51
2023/07/01 04:02:26;;;;;;;8.05;5.30;;;21.70;99.90;;;;;;5074096;28;20024;-52
2023/07/01 04:04:52;;;;;;;14.75;6.57;;;21.80;99.90;;;;;;5072714;28;20024;-50
2023/07/01 04:07:21;;;;;;;11.10;6.05;;;;;;;;;;5055393;28;20043;-53
2023/07/01 04:09:48;;;;;;;11.93;6.20;;;;;;;;;;5073961;28;20041;-50
2023/07/01 04:12:14;;;;;;;9.30;5.70;;;21.80;99.90;;;;;;5073872;28;20031;-52
2023/07/01 04:14:39;;;;;;;9.30;6.05;;;21.90;99.90;;;;;;5074020;28;20024;-53
2023/07/01 04:17:05;;;;;;;10.57;6.15;;;21.90;99.90;;;;;;5073864;28;20086;-51
2023/07/01 04:19:31;;;;;;;9.95;5.90;;;21.90;99.90;;;;;;5022001;28;20460;-53
2023/07/01 04:21:57;;;;;;;8.43;5.70;;;22.00;99.90;;;;;;5073837;28;20127;-51
2023/07/01 04:24:23;;;;;;;9.90;5.75;;;22.10;99.90;;;;;;5055452;28;20040;-52
2023/07/01 04:26:49;;;;;;;8.43;6.10;;;22.30;99.90;;;;;;5073887;28;20039;-50
2023/07/01 04:29:14;;;;;;;8.65;6.32;;;22.40;99.90;;;;;;5038726;28;20048;-54
2023/07/01 04:31:40;;;;;;;9.32;5.57;;;22.50;99.90;;;;;;5073836;28;20099;-50
2023/07/01 04:34:06;;;;;;;10.98;5.95;;;22.60;99.90;;;;;;5073553;28;20059;-50
2023/07/01 04:36:31;;;;;;;10.98;5.78;;;22.70;99.90;;;;;;5073640;28;20111;-50
2023/07/01 04:38:57;;;;;;;8.07;5.68;;;22.80;99.90;;;;;;5074034;28;20379;-50
2023/07/01 04:41:24;;;;;;;10.88;5.50;;;22.80;99.90;;;;;;5073562;28;20025;-53
2023/07/01 04:43:50;;;;;;;7.82;5.38;;;22.90;99.90;;;;;;5073496;28;20456;-52
2023/07/01 04:46:16;;;;;;;9.10;6.28;;;23.00;99.90;;;;;;5073510;28;20095;-52
2023/07/01 04:48:42;;;;;;;9.50;5.75;;;;;;;;;;5073356;28;20488;-51
2023/07/01 04:51:08;;;;;;;12.05;5.65;;;;;;;;;;5073853;28;20111;-53
2023/07/01 04:53:34;;;;;;;8.40;5.32;;;;;;;;;;5072928;28;20044;-53
2023/07/01 04:55:59;;;;;;;8.38;5.95;;;23.10;99.90;;;;;;5038215;28;20047;-50
2023/07/01 04:58:25;;;;;;;8.63;4.95;;;23.20;99.90;;;;;;5073331;28;20020;-51
2023/07/01 05:00:51;;;;;;;9.25;5.00;;;23.20;99.90;;;;;;5073469;28;20073;-50
2023/07/01 05:03:16;;;;;;;8.38;5.10;;;23.20;99.90;;;;;;5054688;28;20068;-52
2023/07/01 05:05:42;;;;;;;19.38;5.38;;;23.20;99.90;;;;;;5073194;28;20028;-53
2023/07/01 05:08:08;;;;;;;12.23;5.60;;;23.30;99.90;;;;;;5073012;28;20039;-51
2023/07/01 05:10:33;;;;;;;7.57;4.90;;;23.30;99.90;;;;;;5054485;28;20086;-53
2023/07/01 05:12:59;;;;;;;9.32;5.03;;;23.30;99.90;;;;;;5038092;28;20039;-53
2023/07/01 05:15:25;;;;;;;7.13;5.53;;;23.40;99.90;;;;;;5072765;28;20503;-52
2023/07/01 05:17:50;;;;;;;11.27;5.43;;;23.40;99.90;;;;;;5072957;28;20055;-51
2023/07/01 05:20:16;;;;;;;7.78;4.90;;;23.50;99.90;;;;;;5073022;28;20391;-51
2023/07/01 05:22:43;;;;;;;8.05;4.90;;;;;;;;;;5072730;28;20063;-50
2023/07/01 05:25:09;;;;;;;8.02;4.68;;;;;;;;;;5072919;28;20476;-50
2023/07/01 05:27:35;;;;;;;7.03;4.70;;;;;;;;;;5072834;28;20388;-52
2023/07/01 05:30:01;;;;;;;7.53;4.93;;;;;;;;;;5073225;28;20033;-54
2023/07/01 05:32:27;;;;;;;6.40;4.32;;;;;;;;;;5072929;28;20029;-52
2023/07/01 05:34:53;;;;;;;10.75;4.75;;;;;;;;;;5073076;28;20025;-54
2023/07/01 05:37:19;;;;;;;8.23;5.28;;;;;;;;;;5072861;28;20154;-53
2023/07/01 05:39:45;;;;;;;4.95;4.07;;;;;;;;;;5072926;28;20067;-53
2023/07/01 05:42:11;;;;;;;6.68;4.60;;;23.80;99.90;;;;;;5071422;28;20047;-54
2023/07/01 05:44:36;;;;;;;8.05;4.65;;;23.80;99.90;;;;;;5071475;28;20032;-53
2023/07/01 05:47:02;;;;;;;9.07;4.30;;;;;;;;;;5071810;28;20025;-50
2023/07/01 05:49:28;;;;;;;9.60;4.35;;;;;;;;;;5036422;28;20095;-51
2023/07/01 05:51:54;;;;;;;8.40;4.30;;;;;;;;;;5071683;28;20029;-52
2023/07/01 05:54:20;;;;;;;7.70;4.82;;;23.80;99.90;;;;;;5071844;28;20566;-50
2023/07/01 05:56:46;;;;;;;9.82;4.45;;;24.10;99.90;;;;;;5071285;28;20130;-53
2023/07/01 05:59:13;;;;;;;9.02;4.78;;;24.20;99.90;;;;;;5071678;28;20459;-50
2023/07/01 06:01:39;;;;;;;6.40;4.95;;;;;;;;;;5071831;28;20378;-51
2023/07/01 06:04:05;;;;;;;7.38;4.63;;;;;;;;;;5071661;28;20112;-53
2023/07/01 06:06:31;;;;;;;5.50;3.65;;;24.30;99.90;;;;;;5071626;28;20031;-53
2023/07/01 06:08:56;;;;;;;8.80;4.47;;;24.40;99.90;;;;;;5071380;28;20032;-53
2023/07/01 06:11:22;;;;;;;7.43;3.75;;;24.40;99.90;;;;;;5071467;28;20028;-52
2023/07/01 06:13:48;;;;;;;7.25;4.50;;;;;;;;;;5071366;28;20070;-53
2023/07/01 06:16:14;;;;;;;6.53;3.80;;;24.60;99.90;;;;;;5071935;28;20028;-52
2023/07/01 06:18:40;;;;;;;5.78;3.80;;;;;;;;;;5071415;28;20028;-51
2023/07/01 06:21:06;;;;;;;5.80;4.00;;;;;;;;;;5071759;28;20032;-53
2023/07/01 06:23:33;;;;;;;5.32;3.35;;;;;;;;;;5071355;28;20123;-53
2023/07/01 06:25:59;;;;;;;8.07;3.58;;;24.80;99.90;;;;;;5071782;28;20070;-51
2023/07/01 06:28:25;;;;;;;5.38;3.50;;;24.80;99.90;;;;;;5038943;28;20572;-52
2023/07/01 06:30:50;;;;;;;5.03;3.50;;;24.60;99.90;;;;;;5074888;28;20029;-51
2023/07/01 06:33:16;;;;;;;5.82;3.55;;;24.80;99.90;;;;;;5074929;28;20124;-52
2023/07/01 06:35:43;;;;;;;5.00;3.42;;;25.00;99.90;;;;;;5074721;28;20020;-53
2023/07/01 06:38:09;;;;;;;6.70;4.15;;;;;;;;;;5075084;28;20031;-53
2023/07/01 06:40:35;;;;;;;7.68;3.30;;;;;;;;;;5039296;28;20098;-54
2023/07/01 06:43:02;;;;;;;4.35;3.10;;;25.80;99.90;;;;;;5074610;28;20064;-54
2023/07/01 06:45:28;;;;;;;5.38;3.08;;;25.80;99.90;;;;;;5074774;28;20039;-54
2023/07/01 06:47:54;;;;;;;4.88;3.20;;;;;;;;;;5074239;28;20430;-51
2023/07/01 06:50:20;;;;;;;5.47;3.85;;;26.30;99.90;;;;;;5074576;28;20024;-53
2023/07/01 06:52:47;;;;;;;7.70;3.70;;;;;;;;;;5074629;28;20056;-53
2023/07/01 06:55:13;;;;;;;7.30;3.97;;;;;;;;;;5075619;28;20487;-53
2023/07/01 06:57:40;;;;;;;6.90;3.67;;;;;;;;;;5075538;28;20051;-53
2023/07/01 07:00:09;;;;;;;5.95;3.17;;;;;;;;;;5075961;28;20478;-54
2023/07/01 07:02:35;;;;;;;5.47;3.42;;;;;;;;;;5073655;28;20028;-54
2023/07/01 07:05:01;;;;;;;5.13;2.92;;;;;;;;;;5074155;28;20119;-53
2023/07/01 07:07:27;;;;;;;3.55;2.53;;;;;;;;;;5074475;28;20043;-54
2023/07/01 07:09:53;;;;;;;4.47;3.00;;;;;;;;;;5074540;28;20044;-51
2023/07/01 07:12:19;;;;;;;4.75;3.50;;;;;;;;;;5074283;28;20458;-52
2023/07/01 07:14:45;;;;;;;4.10;2.67;;;;;;;;;;5074238;28;20475;-53
2023/07/01 07:17:11;;;;;;;4.55;3.20;;;;;;;;;;5073749;28;20036;-52
2023/07/01 07:19:37;;;;;;;3.67;2.60;;;;;;;;;;5074195;28;20032;-51
2023/07/01 07:22:04;;;;;;;10.73;2.40;;;;;;;;;;5074227;28;20029;-52
2023/07/01 07:24:30;;;;;;;6.00;2.63;;;;;;;;;;5074016;28;20086;-53
2023/07/01 07:26:57;;;;;;;3.90;2.50;;;;;;;;;;5073741;28;20020;-51
2023/07/01 07:29:24;;;;;;;5.15;2.75;;;27.40;99.90;;;;;;5073596;28;20039;-54
2023/07/01 07:31:50;;;;;;;4.00;2.20;;;27.30;99.90;;;;;;5073545;28;20025;-51
2023/07/01 07:34:16;;;;;;;3.38;2.25;;;27.40;99.90;;;;;;5073899;28;20118;-53
2023/07/01 07:36:43;;;;;;;2.80;2.08;;;27.30;99.90;;;;;;5074018;28;20108;-51
2023/07/01 07:39:10;;;;;;;4.30;2.50;;;27.20;99.90;;;;;;5073438;28;20032;-53
2023/07/01 07:41:36;;;;;;;8.20;3.35;;;27.50;99.90;;;;;;5073803;28;20028;-52
2023/07/01 07:44:02;;;;;;;3.90;2.55;;;;;;;;;;5051114;28;20537;-53
2023/07/01 07:46:28;;;;;;;3.97;2.30;;;;;;;;;;5062402;28;20060;-50
2023/07/01 07:48:54;;;;;;;3.25;2.20;;;;;;;;;;5062007;28;20025;-54
2023/07/01 07:51:19;;;;;;;3.20;2.20;;;27.80;99.90;;;;;;5061447;28;20083;-51
2023/07/01 07:53:45;;;;;;;7.93;3.35;;;28.00;99.90;;;;;;5020318;28;20450;-51
2023/07/01 07:56:11;;;;;;;4.03;2.70;;;28.20;99.90;;;;;;5057663;28;20063;-51
2023/07/01 07:58:37;;;;;;;5.53;3.08;;;;;;;;;;5029731;28;20471;-53
2023/07/01 08:01:03;;;;;;;5.43;3.63;;;;;;;;;;5036893;28;20051;-53
2023/07/01 08:03:29;;;;;;;4.82;2.53;;;;;;;;;;5062671;28;20025;-54
2023/07/01 08:05:55;;;;;;;4.45;2.30;;;29.10;99.90;;;;;;5035787;28;20033;-53
2023/07/01 08:08:21;;;;;;;4.38;2.38;;;29.10;99.90;;;;;;5028601;28;20099;-54
2023/07/01 08:10:47;;;;;;;3.22;2.60;;;29.00;99.90;;;;;;5049284;28;20395;-50
2023/07/01 08:13:13;;;;;;;3.90;2.60;;;29.00;99.90;;;;;;5059397;28;20028;-53
2023/07/01 08:15:41;;;;;;;4.40;2.88;;;29.20;99.90;;;;;;5003789;28;20047;-54
2023/07/01 08:18:07;;;;;;;5.70;2.50;;;29.20;99.90;;;;;;5051909;28;20098;-54
2023/07/01 08:20:33;;;;;;;5.55;2.53;;;29.40;99.90;;;;;;5052539;28;20432;-54
2023/07/01 08:22:59;;;;;;;4.63;2.67;;;29.50;99.90;;;;;;5052653;28;20033;-54
2023/07/01 08:25:25;;;;;;;5.90;2.42;;;;;;;;;;5051838;28;20064;-52
2023/07/01 08:27:51;;;;;;;4.60;2.80;;;;;;;;;;5052234;28;20484;-52
2023/07/01 08:30:17;;;;;;;3.97;2.78;;;30.30;99.90;;;;;;5052891;28;20116;-51
2023/07/01 08:32:43;;;;;;;5.00;2.78;;;30.30;99.90;;;;;;5052943;28;20118;-52
2023/07/01 08:35:09;;;;;;;4.68;3.00;;;30.10;99.90;;;;;;5052371;28;20024;-54
2023/07/01 08:37:35;;;;;;;5.63;2.50;;;30.30;99.90;;;;;;5052644;28;20489;-55
2023/07/01 08:40:00;;;;;;;3.30;2.22;;;29.90;99.90;;;;;;5052469;28;20032;-51
2023/07/01 08:42:35;;;;;;;4.53;2.83;;;29.80;99.90;;;;;;5052519;28;20162;-52
2023/07/01 08:45:02;;;;;;;4.18;2.47;;;;;;;;;;5052315;28;20112;-52
2023/07/01 08:47:29;;;;;;;4.15;2.80;;;30.00;99.90;;;;;;5051889;28;20079;-55
2023/07/01 08:49:56;;;;;;;4.82;2.80;;;29.90;99.90;;;;;;5051843;28;20102;-53
2023/07/01 08:52:25;;;;;;;5.15;2.58;;;29.80;99.90;;;;;;5052358;28;20059;-51
2023/07/01 08:54:52;;;;;;;4.22;2.67;;;30.10;99.90;;;;;;5052251;28;20047;-53
2023/07/01 08:57:19;;;;;;;3.00;2.60;;;;;;;;;;5051869;28;20035;-53
2023/07/01 08:59:47;;;;;;;4.10;3.00;;;;;;;;;;5052572;28;20036;-53
2023/07/01 09:02:15;;;;;;;4.20;2.70;;;;;;;;;;5052138;28;20461;-52
2023/07/01 09:04:41;;;;;;;4.93;2.95;;;;;;;;;;5054177;28;20037;-52
2023/07/01 09:07:10;;;;;;;4.72;3.10;;;;;;;;;;5061052;28;20468;-50
2023/07/01 09:09:38;;;;;;;3.83;2.60;;;;;;;;;;5061333;28;20048;-53
2023/07/01 09:12:04;;;;;;;4.38;2.83;;;;;;;;;;5054406;28;20361;-50
2023/07/01 09:14:51;;;;;;;6.30;2.90;;;;;;;;;;5053064;28;20025;-53
2023/07/01 09:17:27;;;;;;;3.72;2.50;;;;;;;;;;5039165;28;20044;-52
2023/07/01 09:19:55;;;;;;;2.42;2.20;;;;;;;;;;5034672;28;20060;-53
2023/07/01 09:22:21;;;;;;;3.92;2.75;;;;;;;;;;5052757;28;20391;-51
2023/07/01 09:24:47;;;;;;;3.03;2.45;;;;;;;;;;5051082;28;20103;-53
2023/07/01 09:27:13;;;;;;;4.47;2.55;;;;;;;;;;5052921;28;20469;-53
2023/07/01 09:29:40;;;;;;;4.15;2.70;;;;;;;;;;5051148;28;20399;-52
2023/07/01 09:32:07;;;;;;;6.18;2.92;;;;;;;;;;5053434;28;20063;-51
2023/07/01 09:34:55;;;;;;;6.47;2.28;;;;;;;;;;5053153;28;20110;-53
2023/07/01 09:37:22;;;;;;;5.45;2.30;;;;;;;;;;5034524;28;20124;-51
2023/07/01 09:39:49;;;;;;;4.82;2.80;;;31.00;99.90;;;;;;5052056;28;20013;-50
2023/07/01 09:42:18;;;;;;;4.13;2.30;;;31.10;99.90;;;;;;5052287;28;20032;-51
2023/07/01 09:45:04;;;;;;;3.00;2.47;;;;;;;;;;5057506;28;21656;-52
2023/07/01 09:47:30;;;;;;;2.88;2.00;;;;;;;;;;5063893;28;20525;-51
2023/07/01 09:49:56;;;;;;;4.65;2.60;;;;;;;;;;5062292;28;20353;-53
2023/07/01 09:52:35;;;;;;;3.72;2.30;;;;;;;;;;5032489;28;20032;-52
2023/07/01 09:55:02;;;;;;;5.03;2.83;;;;;;;;;;5034334;28;20369;-51
2023/07/01 09:57:29;;;;;;;3.72;2.10;;;;;;;;;;5053123;28;20044;-53
2023/07/01 09:59:55;;;;;;;4.07;2.50;;;;;;;;;;5051411;28;20029;-53
2023/07/01 10:02:22;;;;;;;6.28;2.88;;;;;;;;;;5054314;28;20516;-53
2023/07/01 10:04:48;;;;;;;4.80;2.50;;;;;;;;;;5025482;28;20068;-51
2023/07/01 10:07:14;;;;;;;4.82;2.58;;;;;;;;;;5055143;28;20025;-53
2023/07/01 10:09:47;;;;;;;3.40;2.40;;;32.90;99.90;;;;;;5055561;28;20045;-53
2023/07/01 10:12:19;;;;;;;3.72;2.15;;;32.90;99.90;;;;;;5055397;28;20020;-50
2023/07/01 10:14:50;;;;;;;2.70;2.15;;;33.00;99.90;;;;;;5019686;28;20040;-52
2023/07/01 10:17:17;;;;;;;3.08;2.35;;;32.70;98.90;;;;;;5055595;28;20037;-51
2023/07/01 10:19:46;;;;;;;2.85;2.13;;;32.90;99.80;;;;;;5055128;28;20051;-51
2023/07/01 10:22:30;;;;;;;2.60;2.13;;;32.80;99.50;;;;;;5055018;28;20025;-51
2023/07/01 10:24:57;;;;;;;5.18;2.88;;;33.00;99.30;;;;;;5054991;28;20037;-52
2023/07/01 10:27:41;;;;;;;3.22;2.20;;;33.00;99.40;;;;;;5054823;28;20029;-52
2023/07/01 10:30:14;;;;;;;3.65;2.30;;;33.10;99.40;;;;;;5054319;28;20037;-52
2023/07/01 10:32:40;;;;;;;10.95;3.25;;;32.90;99.00;;;;;;4970717;28;20140;-51
2023/07/01 10:35:06;;;;;;;2.95;2.13;;;32.80;98.80;;;;;;4995657;28;20033;-52
2023/07/01 10:37:33;;;;;;;3.35;2.35;;;33.00;98.80;;;;;;5012776;28;20040;-53
2023/07/01 10:40:07;;;;;;;4.05;2.67;;;33.30;99.30;;;;;;5011891;28;20038;-54
2023/07/01 10:42:34;;;;;;;9.88;3.10;;;33.60;98.50;;;;;;5010416;28;20104;-53
2023/07/01 10:45:26;;;;;;;4.22;2.92;;;33.70;98.10;;;;;;5009434;28;20030;-51
2023/07/01 10:47:52;;;;;;;5.50;2.70;;;33.60;98.60;;;;;;4932453;29;20038;-51
2023/07/01 10:50:18;;;;;;;3.80;2.45;;;33.70;97.80;;;;;;4935238;29;20039;-53
2023/07/01 10:52:56;;;;;;;3.53;2.47;;;33.50;96.30;;;;;;4934740;29;20075;-53
2023/07/01 10:55:49;;;;;;;4.03;2.70;;;33.80;96.20;;;;;;4935033;29;20043;-53
2023/07/01 10:58:15;;;;;;;3.33;2.05;;;34.10;95.40;;;;;;4934961;29;20044;-52
2023/07/01 11:00:41;;;;;;;3.65;1.83;;;34.20;94.90;;;;;;4934778;29;20058;-53
2023/07/01 11:03:33;;;;;;;4.47;2.45;;;34.00;94.70;;;;;;4950921;28;20166;-50
2023/07/01 11:05:59;;;;;;;4.00;2.30;;;33.80;95.80;;;;;;4991269;28;20030;-53
2023/07/01 11:08:28;;;;;;;3.50;2.38;;;33.30;95.40;;;;;;4981815;28;20026;-51
2023/07/01 11:10:54;;;;;;;3.90;2.30;;;32.90;95.60;;;;;;4981266;28;20037;-54
2023/07/01 11:13:21;;;;;;;2.72;2.03;;;32.80;95.70;;;;;;4991697;28;20026;-53
2023/07/01 11:16:09;;;;;;;2.65;1.90;;;33.00;95.30;;;;;;4992503;28;20521;-51
2023/07/01 11:18:40;;;;;;;7.13;2.38;;;33.20;94.80;;;;;;4992421;28;20042;-50
2023/07/01 11:21:11;;;;;;;4.65;2.53;;;33.50;94.80;;;;;;4975984;28;20042;-52
2023/07/01 11:23:42;;;;;;;3.05;2.20;;;33.60;94.40;;;;;;4996460;28;20567;-53
2023/07/01 11:26:08;;;;;;;6.03;2.60;;;33.80;94.20;;;;;;5054159;28;20107;-52
2023/07/01 11:28:35;;;;;;;3.63;2.15;;;33.60;94.60;;;;;;5053856;28;20025;-53
2023/07/01 11:31:19;;;;;;;4.28;2.45;;;33.90;94.90;;;;;;5053947;28;20029;-52
2023/07/01 11:33:48;;;;;;;4.20;2.45;;;33.50;94.70;;;;;;5053944;28;20388;-52
2023/07/01 11:36:15;;;;;;;3.95;2.53;;;33.70;94.30;;;;;;5002155;28;20037;-52
2023/07/01 11:38:45;;;;;;;2.75;2.08;;;34.10;94.80;;;;;;5015832;28;20033;-53
2023/07/01 11:41:20;;;;;;;4.88;2.38;;;34.10;94.20;;;;;;5018536;28;20045;-53
2023/07/01 11:43:47;;;;;;;4.97;2.65;;;34.30;94.30;;;;;;5054052;28;20025;-53
2023/07/01 11:46:13;;;;;;;4.78;2.40;;;34.50;94.00;;;;;;5053610;28;20598;-53
2023/07/01 11:48:41;;;;;;;6.25;2.63;;;34.50;94.50;;;;;;5053679;28;20040;-52
2023/07/01 11:51:06;;;;;;;4.55;2.70;;;34.50;94.30;;;;;;5053494;28;20028;-52
2023/07/01 11:53:33;;;;;;;3.63;2.40;;;34.70;94.80;;;;;;5018263;28;20049;-51
2023/07/01 11:56:02;;;;;;;3.90;2.42;;;34.40;93.60;;;;;;5053098;28;20029;-54
2023/07/01 11:58:37;;;;;;;5.75;2.40;;;34.60;93.90;;;;;;5052008;28;20391;-53
2023/07/01 12:01:03;;;;;;;3.30;2.05;;;34.50;93.90;;;;;;5053308;28;20066;-53
2023/07/01 12:03:33;;;;;;;3.50;2.45;;;34.40;93.30;;;;;;5017485;28;20044;-52
2023/07/01 12:05:59;;;;;;;2.83;2.10;;;33.90;93.10;;;;;;5053073;28;20047;-53
2023/07/01 12:08:25;;;;;;;3.35;2.15;;;33.70;93.30;;;;;;5033716;28;20111;-53
2023/07/01 12:10:50;;;;;;;4.05;2.20;;;33.50;94.10;;;;;;5052917;28;20480;-53
2023/07/01 12:13:34;;;;;;;3.58;2.38;;;33.30;93.60;;;;;;5034298;28;20037;-53
2023/07/01 12:16:00;;;;;;;3.47;2.58;;;33.10;93.20;;;;;;5020541;28;20063;-52
2023/07/01 12:18:29;;;;;;;4.15;2.22;;;33.10;94.00;;;;;;5056765;28;20391;-50
2023/07/01 12:20:56;;;;;;;3.47;2.40;;;33.20;94.70;;;;;;5053135;28;20110;-52
2023/07/01 12:23:22;;;;;;;3.40;2.28;;;33.00;94.20;;;;;;5052887;28;20115;-52
2023/07/01 12:25:48;;;;;;;4.47;2.15;;;32.80;93.70;;;;;;5039607;28;20074;-51
2023/07/01 12:28:14;;;;;;;3.47;2.13;;;32.70;94.10;;;;;;5072763;28;20387;-53
2023/07/01 12:30:40;;;;;;;4.68;2.63;;;32.60;94.00;;;;;;5033886;28;20032;-53
2023/07/01 12:33:05;;;;;;;2.70;2.17;;;32.50;94.30;;;;;;5058902;28;20029;-51
2023/07/01 12:35:31;;;;;;;4.38;2.50;;;32.40;94.00;;;;;;5048651;28;20032;-52
2023/07/01 12:37:58;;;;;;;4.43;2.65;;;32.40;93.30;;;;;;5062672;28;20024;-51
2023/07/01 12:40:27;;;;;;;3.83;2.38;;;32.20;94.20;;;;;;5045025;28;20036;-53
2023/07/01 12:42:54;;;;;;;5.03;2.13;;;32.20;94.00;;;;;;5061079;28;20028;-51
2023/07/01 12:45:20;;;;;;;3.85;2.60;;;32.10;94.30;;;;;;5052604;28;20469;-53
2023/07/01 12:47:45;;;;;;;8.20;3.05;;;31.90;94.10;;;;;;5072555;28;20103;-50
2023/07/01 12:50:12;;;;;;;4.13;2.65;;;31.90;94.70;;;;;;5072411;28;20556;-54
2023/07/01 12:52:38;;;;;;;3.42;2.20;;;32.00;94.70;;;;;;5072138;28;20084;-53
2023/07/01 12:55:10;;;;;;;3.85;2.28;;;31.80;94.70;;;;;;5072177;28;20024;-53
2023/07/01 13:10:30;;;;;;;5.38;2.40;;;;;;;;;;5096807;27;20451;-49
2023/07/01 13:12:58;;;;;;;4.20;2.28;;;;;;;;;;5089610;28;20046;-49
2023/07/01 13:15:28;;;;;;;3.10;2.22;;;;;;;;;;5089925;28;20054;-49
2023/07/01 13:17:54;;;;;;;3.60;2.20;;;29.70;97.40;;;;;;5089241;28;20032;-49
2023/07/01 13:20:21;;;;;;;4.95;2.60;;;;;;;;;;5089407;28;20107;-50
2023/07/01 13:22:51;;;;;;;4.65;2.92;;;;;;;;;;5089072;28;20340;-49
2023/07/01 13:25:18;;;;;;;2.95;2.05;;;;;;;;;;5089426;28;20045;-48
2023/07/01 13:27:44;;;;;;;4.18;2.35;;;;;;;;;;5089187;28;20115;-49